Martha, Oklahoma
Current Conditions -  °F | °C
As of 10:35 AM on Wednesday 26 Nov 2014 (Local Time) from KAXS Reporting Station
Clear Clear  
Wind Chill: 53°   Ceiling: Unl
Heat Index: 53°   Visibility: 10mi
Dew Point: 34°   Wind: 13mph
Humidity: 49%   Direction: 350°N
Pressure: 30.26"   Gusts: NA
Location:  34.73°N, 99.39°W
Report Text: KAXS 261635Z AUTO 35011KT 10SM CLR 12/01 A3026 RMK AO2 T01150010
Loading
Personal Weather Stations






























Interactive Weather Map New forecast layout! Learn more

10-Day Weather Forecast

Advertisements
Track Severe Weather on mobile